• Join FlightAware (Why Join?)
  • Login
  • US Flag 
04:13PM EST


 

Airport Tracker/Info


-or-


 

Live Flight TrackerFlight Track Log ✈ N3096B ✈ 23-Sep-2013 ✈ KPWK - KENW

Flight Track Log - Related Links

Times and Time Zones

All times are in EDT time to prevent confusion due to time zone crossing. See the N3096B flight status page for this flight to view local times or setup timezone preferences in your user account.

Time Position Orientation Groundspeed Altitude Reporting Facility
EDT Latitude Longitude Course Direction KTS MPH feet Rate Location/Type
12:37PM 42.1167 -87.9167 North 93 107 1,800  Level Chicago TRACON
12:38PM 42.1417 -87.9106 10° North 114 131 2,100 416 Climbing Chicago Center
12:39PM 42.1706 -87.9097 North 107 123 2,500 435 Climbing Chicago Center
12:40PM 42.1994 -87.9119 357° North 106 122 3,000 484 Climbing Chicago Center
12:41PM 42.2283 -87.9139 357° North 105 121 3,500 435 Climbing Chicago Center
12:42PM 42.2771 -87.9104 North  Level Estimated
12:42PM 42.2567 -87.9136 360° North 103 119 3,900  Level Chicago Center
12:43PM 42.3042 -87.9118 North  Level Estimated
12:43PM 42.2914 -87.9150 358° North 104 120 4,500  Level Chicago Center
12:44PM 42.3183 -87.9133 North 100 115 4,900 242 Climbing Chicago Center
12:45PM 42.3458 -87.9139 359° North 106 122 5,000 48 Climbing Chicago Center
12:46PM 42.3842 -87.9131 North 113 130 5,000  Level Chicago Center
12:47PM 42.4081 -87.9397 321° Northwest 115 132 5,000  Level Chicago Center
12:48PM 42.4283 -87.9731 310° West 116 133 5,000 -242 Level Chicago Center
12:49PM 42.4489 -88.0081 309° West 117 135 4,500 -484 Descending Chicago Center
12:50PM 42.4700 -88.0442 308° West 121 139 4,000 -242 Descending Chicago Center
12:51PM 42.4883 -88.0794 305° West 117 135 4,000 -48 Level Chicago Center
12:52PM 42.5139 -88.1194 311° West 119 137 3,900 -48 Descending Chicago Center
12:54PM 42.5361 -88.1006 32° Northeast 128 147 3,900 -384 Level Chicago Center
12:55PM 42.5469 -88.0650 68° East 107 123 3,100 -823 Descending Chicago Center
12:56PM 42.5589 -88.0306 65° Northeast 106 122 2,200 -484 Descending Chicago Center
12:57PM 42.5706 -88.0000 63° Northeast 105 121 2,100 -286 Descending Chicago Center
12:59PM 42.6000 -87.9333 59° Northeast 94 108 1,300 -107 Descending KMKE
12:59PM 42.6000 -87.9000 90° East 92 106 1,800 588 Climbing KMKE
01:00PM 42.6167 -87.9000 360° North 108 124 2,300 595 Climbing KMKE
01:01PM 42.6167 -87.9333 270° West 112 129 3,000 550 Climbing KMKE
01:02PM 42.6000 -87.9667 236° Southwest 110 127 3,400 450 Climbing KMKE
01:03PM 42.5833 -88.0000 236° Southwest 107 123 3,900 250 Climbing KMKE
01:04PM 42.5667 -88.0333 236° Southwest 118 136 3,900 48 Level KMKE
01:06PM 42.5500 -88.0833 246° West 118 136 4,000 48 Climbing KMKE
01:07PM 42.5667 -88.0667 36° Northeast 108 124 4,000 -50 Level KMKE
01:08PM 42.5667 -88.0333 90° East 107 123 3,900 -50 Descending KMKE
01:09PM 42.5833 -88.0333 360° North 112 129 3,900  Level KMKE
01:09PM 42.5667 -88.0667 236° Southwest 111 128 3,900 53 Level KMKE
01:10PM 42.5500 -88.0833 216° Southwest 121 139 4,000 48 Climbing KMKE
01:12PM 42.5667 -88.0333 66° East 114 131 4,000  Level KMKE
01:13PM 42.5833 -88.0333 360° North 106 122 4,000 -50 Level KMKE
01:14PM 42.5667 -88.0667 236° Southwest 116 133 3,900 -59 Descending KMKE
01:14PM 42.5667 -88.1000 270° West 110 127 3,900  Level KMKE
01:15PM 42.5500 -88.0667 124° Southeast 113 130 3,900 45 Level KMKE
01:16PM 42.5667 -88.0333 56° Northeast 109 125 4,000 56 Climbing KMKE
01:17PM 42.5833 -88.0167 36° Northeast 113 130 4,000 -333 Level KMKE
01:18PM 42.5833 -88.0667 270° West 124 143 3,400 -476 Descending KMKE
01:19PM 42.6000 -88.1000 304° West 114 131 3,000 -174 Descending KMKE
01:21PM 42.6167 -88.0667 56° Northeast 95 109 3,000  Level KMKE
01:22PM 42.6000 -88.0333 124° Southeast 95 109 3,000 -52 Level KMKE
01:22PM 42.6000 -88.0000 90° East 100 115 2,900  Descending KMKE
01:23PM 42.6000 -87.9667 90° East 96 110 3,000 53 Climbing KMKE
01:24PM 42.6000 -87.9333 90° East 111 128 3,000  Level KMKE
01:25PM 42.6333 -87.9500 340° North 115 132 3,000  Level KMKE
01:26PM 42.6667 -87.9667 340° North 110 127 3,000 -50 Level KMKE
01:27PM 42.6833 -88.0000 304° West 117 135 2,900  Descending KMKE
01:29PM 42.7167 -88.0333 324° Northwest 114 131 3,000  Climbing KMKE
01:30PM 42.7167 -87.9833 90° East 100 115 2,900 -222 Descending KMKE
01:30PM 42.6833 -87.9833 180° South 105 121 2,600 -500 Descending KMKE
01:31PM 42.6667 -87.9667 144° Southeast 102 117 2,000 -476 Descending KMKE
01:33PM 42.6333 -87.9500 160° South 100 115 1,600 -240 Descending KMKE
01:34PM 42.6000 -87.9500 180° South 107 123 1,400 -176 Descending KMKE
01:34PM 42.6000 -87.9500 180° South 109 125 1,300 -333 Descending KMKE